Time;durP1;ratioP1;P1;durP2;ratioP2;P2;SDS_P1;SDS_P2;PMS_P1;PMS_P2;Temp;Humidity;BMP_temperature;BMP_pressure;BME280_temperature;BME280_humidity;BME280_pressure;Samples;Min_cycle;Max_cycle;Signal;HPM_P1;HPM_P2
2021/06/11 00:01:39;;;;;;;12.27;6.53;;;;;;;;;;6197665;23;20171;-91
2021/06/11 00:04:45;;;;;;;10.57;6.78;;;;;;;;;;6155321;23;20184;-91
2021/06/11 00:07:50;;;;;;;9.60;6.82;;;;;;;;;;6199676;23;20220;-87
2021/06/11 00:10:55;;;;;;;12.02;6.95;;;;;;;;;;6198014;23;20223;-87
2021/06/11 00:14:00;;;;;;;11.65;7.70;;;;;;;;;;6180786;23;20587;-88
2021/06/11 00:17:05;;;;;;;10.88;7.13;;;;;;;;;;6180974;23;20192;-90
2021/06/11 00:20:11;;;;;;;9.75;6.78;;;;;;;;;;6198341;23;20244;-90
2021/06/11 00:23:16;;;;;;;10.35;6.55;;;;;;;;;;6180555;23;20179;-89
2021/06/11 00:26:21;;;;;;;9.00;6.70;;;;;;;;;;6198001;23;20195;-88
2021/06/11 00:29:25;;;;;;;12.52;6.88;;;;;;;;;;6180460;23;20243;-87
2021/06/11 00:32:30;;;;;;;11.93;7.30;;;;;;;;;;6198168;23;20211;-89
2021/06/11 00:35:36;;;;;;;10.52;7.57;;;;;;;;;;6179318;23;20251;-89
2021/06/11 00:38:44;;;;;;;12.02;7.50;;;;;;;;;;6179369;23;20171;-87
2021/06/11 00:41:49;;;;;;;10.90;7.22;;;;;;;;;;6178876;23;20176;-89
2021/06/11 00:44:53;;;;;;;13.50;7.78;;;;;;;;;;6177247;23;20191;-89
2021/06/11 00:47:57;;;;;;;16.13;8.05;;;;;;;;;;6195366;23;20168;-90
2021/06/11 00:51:04;;;;;;;17.88;8.52;;;;;;;;;;6177470;23;20267;-89
2021/06/11 00:54:08;;;;;;;10.63;7.43;;;;;;;;;;6178164;23;20211;-89
2021/06/11 00:57:13;;;;;;;13.75;7.32;;;;;;;;;;6178614;23;20604;-90
2021/06/11 01:00:18;;;;;;;14.48;7.85;;;;;;;;;;6178675;23;20195;-87
2021/06/11 01:03:22;;;;;;;13.20;7.30;;;;;;;;;;6178777;23;20195;-87
2021/06/11 01:06:29;;;;;;;11.02;7.30;;;;;;;;;;6178576;23;20527;-90
2021/06/11 01:09:36;;;;;;;10.80;7.40;;;;;;;;;;6180387;23;20218;-88
2021/06/11 01:12:41;;;;;;;11.13;7.93;;;;;;;;;;6199654;23;20591;-87
2021/06/11 01:15:48;;;;;;;15.18;7.25;;;;;;;;;;6180648;23;20243;-92
2021/06/11 01:18:53;;;;;;;11.48;6.93;;;;;;;;;;6180810;23;20178;-89
2021/06/11 01:22:03;;;;;;;11.18;7.75;;;;;;;;;;6180345;23;20674;-90
2021/06/11 01:25:09;;;;;;;18.23;7.88;;;;;;;;;;6180263;23;20522;-90
2021/06/11 01:28:17;;;;;;;10.85;7.78;;;;;;;;;;6198642;23;20175;-90
2021/06/11 01:31:21;;;;;;;14.48;7.93;;;;;;;;;;6181096;23;20172;-90
2021/06/11 01:34:31;;;;;;;16.67;8.23;;;;;;;;;;6197969;23;20171;-91
2021/06/11 01:37:36;;;;;;;12.45;8.50;;;;;;;;;;6198255;23;20171;-88
2021/06/11 01:40:42;;;;;;;15.68;8.10;;;;;;;;;;6181115;23;20180;-89
2021/06/11 01:43:49;;;;;;;14.70;8.05;;;;;;;;;;6180975;23;20167;-90
2021/06/11 01:46:57;;;;;;;15.75;9.18;;;;;;;;;;6180146;23;20227;-89
2021/06/11 01:50:02;;;;;;;20.67;8.18;;;;;;;;;;6196449;23;20195;-89
2021/06/11 01:53:07;;;;;;;15.23;8.88;;;;;;;;;;6180222;23;20163;-91
2021/06/11 01:56:12;;;;;;;15.35;8.75;;;;;;;;;;6180070;23;20179;-90
2021/06/11 01:59:19;;;;;;;14.82;8.95;;;;;;;;;;6197858;23;20249;-90
2021/06/11 02:02:24;;;;;;;17.05;8.75;;;;;;;;;;6193765;23;20240;-90
2021/06/11 02:05:29;;;;;;;12.95;8.65;;;;;;;;;;6195255;23;20295;-91
2021/06/11 02:08:34;;;;;;;13.38;8.85;;;;;;;;;;6194830;23;20180;-89
2021/06/11 02:11:41;;;;;;;12.18;8.10;;;;;;;;;;6177193;23;20224;-91
2021/06/11 02:14:50;;;;;;;12.45;8.23;;;;;;;;;;6178409;23;20176;-89
2021/06/11 02:17:55;;;;;;;14.63;8.82;;;;;;;;;;6178554;23;20191;-86
2021/06/11 02:21:00;;;;;;;13.35;8.85;;;;;;;;;;6178404;23;20164;-90
2021/06/11 02:24:06;;;;;;;14.73;8.50;;;;;;;;;;6196318;23;20506;-88
2021/06/11 02:27:15;;;;;;;11.80;8.23;;;;;;;;;;6167393;23;20168;-91
2021/06/11 02:30:21;;;;;;;16.42;8.75;;;;;;;;;;6165238;23;20536;-89
2021/06/11 02:33:26;;;;;;;15.60;8.40;;;;;;;;;;6165483;23;20172;-90
2021/06/11 02:36:33;;;;;;;13.57;8.45;;;;;;;;;;6166860;23;20176;-88
2021/06/11 02:39:38;;;;;;;13.48;8.50;;;;;;;;;;6167244;23;20168;-89
2021/06/11 02:42:44;;;;;;;11.90;7.93;;;;;;;;;;6167020;23;20218;-89
2021/06/11 02:45:54;;;;;;;11.85;7.88;;;;;;;;;;6167588;23;20171;-89
2021/06/11 02:49:04;;;;;;;13.65;7.95;;;;;;;;;;6167605;23;20277;-89
2021/06/11 02:52:09;;;;;;;12.55;7.65;;;;;;;;;;6167929;23;20225;-90
2021/06/11 02:55:16;;;;;;;16.80;7.65;;;;;;;;;;6165104;23;20217;-92
2021/06/11 02:58:24;;;;;;;15.20;8.40;;;;;;;;;;6164926;23;20175;-89
2021/06/11 03:01:34;;;;;;;13.15;8.55;;;;;;;;;;6164145;23;20180;-90
2021/06/11 03:04:43;;;;;;;12.80;8.65;;;;;;;;;;6165391;23;20176;-87
2021/06/11 03:07:48;;;;;;;14.27;8.48;;;;;;;;;;6165052;23;20168;-89
2021/06/11 03:10:57;;;;;;;12.75;8.40;;;;;;;;;;6166551;23;20192;-89
2021/06/11 03:14:03;;;;;;;17.52;9.32;;;;;;;;;;6166699;23;20176;-89
2021/06/11 03:17:11;;;;;;;20.40;10.00;;;;;;;;;;6165401;23;20168;-90
2021/06/11 03:20:17;;;;;;;18.95;10.20;;;;;;;;;;6166284;23;20209;-91
2021/06/11 03:23:24;;;;;;;19.27;9.32;;;;;;;;;;6166399;23;20176;-90
2021/06/11 03:26:32;;;;;;;16.15;9.70;;;;;;;;;;6192426;23;20195;-91
2021/06/11 03:29:41;;;;;;;19.50;11.50;;;;;;;;;;6181280;23;20248;-89
2021/06/11 03:32:48;;;;;;;18.33;10.40;;;;;;;;;;6176899;23;20176;-88
2021/06/11 03:35:55;;;;;;;16.17;10.50;;;;;;;;;;6176529;23;20184;-90
2021/06/11 03:39:01;;;;;;;19.17;10.88;;;;;;;;;;6176482;23;20183;-90
2021/06/11 03:42:07;;;;;;;19.00;10.77;;;;;;;;;;6177338;23;20236;-89
2021/06/11 03:45:11;;;;;;;15.80;10.48;;;;;;;;;;6178236;23;20223;-89
2021/06/11 03:48:20;;;;;;;16.83;10.23;;;;;;;;;;6179149;23;20176;-88
2021/06/11 03:51:26;;;;;;;15.73;9.57;;;;;;;;;;6180295;23;20190;-90
2021/06/11 03:54:31;;;;;;;19.40;10.43;;;;;;;;;;6197014;23;20635;-91
2021/06/11 03:57:37;;;;;;;27.77;11.40;;;;;;;;;;6179407;23;20183;-90
2021/06/11 04:00:44;;;;;;;39.85;12.00;;;;;;;;;;6178004;23;20233;-91
2021/06/11 04:03:53;;;;;;;21.55;11.50;;;;;;;;;;6179256;23;20175;-88
2021/06/11 04:07:04;;;;;;;19.90;11.45;;;;;;;;;;6178269;23;20176;-89
2021/06/11 04:10:12;;;;;;;23.77;11.50;;;;;;;;;;6175746;23;20207;-89
2021/06/11 04:13:18;;;;;;;24.23;11.68;;;;;;;;;;6176440;23;20222;-91
2021/06/11 04:16:25;;;;;;;19.15;11.15;;;;;;;;;;6176742;23;20168;-91
2021/06/11 04:19:41;;;;;;;17.10;11.00;;;;;;;;;;6176795;23;20600;-89
2021/06/11 04:22:49;;;;;;;18.83;10.65;;;;;;;;;;6178112;23;20171;-91
2021/06/11 04:25:54;;;;;;;16.52;10.60;;;;;;;;;;6185069;23;20575;-88
2021/06/11 04:28:59;;;;;;;18.88;10.77;;;;;;;;;;6195654;23;20186;-91
2021/06/11 04:32:04;;;;;;;14.88;10.23;;;;;;;;;;6196790;23;20175;-89
2021/06/11 04:35:11;;;;;;;17.25;11.45;;;;;;;;;;6196873;23;20172;-90
2021/06/11 04:38:16;;;;;;;18.42;10.70;;;;;;;;;;6196651;23;20200;-89
2021/06/11 04:41:20;;;;;;;16.48;10.95;;;;;;;;;;6194317;23;20171;-90
2021/06/11 04:44:25;;;;;;;19.25;10.98;;;;;;;;;;6193125;23;20191;-89
2021/06/11 04:47:30;;;;;;;17.70;10.52;;;;;;;;;;6194478;23;20167;-89
2021/06/11 04:50:35;;;;;;;15.65;10.55;;;;;;;;;;6194186;23;20262;-90
2021/06/11 04:53:40;;;;;;;15.15;10.68;;;;;;;;;;6193591;23;20175;-90
2021/06/11 04:56:45;;;;;;;16.75;10.23;;;;;;;;;;6195177;23;20172;-89
2021/06/11 04:59:49;;;;;;;15.45;10.48;;;;;;;;;;6191404;23;20242;-91
2021/06/11 05:02:53;;;;;;;19.33;8.95;;;;;;;;;;6190116;23;20171;-90
2021/06/11 05:06:00;;;;;;;13.60;8.93;;;;;;;;;;6190772;23;20171;-88
2021/06/11 05:09:05;;;;;;;14.65;8.88;;;;;;;;;;6192001;23;20215;-91
2021/06/11 05:12:10;;;;;;;17.48;9.68;;;;;;;;;;6192874;23;20168;-89
2021/06/11 05:15:16;;;;;;;14.43;9.35;;;;;;;;;;6196904;23;20227;-88
2021/06/11 05:18:20;;;;;;;14.43;9.77;;;;;;;;;;6192599;23;20168;-89
2021/06/11 05:21:29;;;;;;;17.15;9.00;;;;;;;;;;6195066;23;20241;-90
2021/06/11 05:24:34;;;;;;;16.13;9.57;;;;;;;;;;6194827;23;20184;-90
2021/06/11 05:27:38;;;;;;;15.48;9.00;;;;;;;;;;6191641;23;20279;-90
2021/06/11 05:30:43;;;;;;;14.48;9.20;;;;;;;;;;6173550;23;20542;-89
2021/06/11 05:33:47;;;;;;;14.73;9.25;;;;;;;;;;6199615;23;20175;-91
2021/06/11 05:37:08;;;;;;;21.55;10.07;;;;;;;;;;6182616;23;20175;-88
2021/06/11 05:40:40;;;;;;;16.05;9.80;;;;;;;;;;6181169;23;20188;-89
2021/06/11 05:43:46;;;;;;;18.17;10.45;;;;;;;;;;6175805;23;20290;-89
2021/06/11 05:46:51;;;;;;;16.75;10.15;;;;;;;;;;6177612;23;20576;-90
2021/06/11 05:49:55;;;;;;;15.52;9.30;;;;;;;;;;6173850;23;20682;-89
2021/06/11 05:53:00;;;;;;;16.98;10.43;;;;;;;;;;6174420;23;20171;-89
2021/06/11 05:56:06;;;;;;;18.95;10.10;;;;;;;;;;6181457;23;20172;-90
2021/06/11 05:59:14;;;;;;;16.42;9.52;;;;;;;;;;6179186;23;20172;-87
2021/06/11 06:02:18;;;;;;;20.42;11.07;;;;;;;;;;6176366;23;20183;-90
2021/06/11 06:05:23;;;;;;;14.57;9.65;;;;;;;;;;6177023;23;20176;-89
2021/06/11 06:08:27;;;;;;;15.20;9.70;;;;;;;;;;6177166;23;20164;-91
2021/06/11 06:11:32;;;;;;;14.32;10.02;;;;;;;;;;6192378;23;20267;-88
2021/06/11 06:14:38;;;;;;;17.90;9.75;;;;;;;;;;6179497;23;20188;-91
2021/06/11 06:17:43;;;;;;;17.75;9.80;;;;;;;;;;6191773;23;20246;-90
2021/06/11 06:20:47;;;;;;;17.98;9.40;;;;;;;;;;6192854;23;20242;-90
2021/06/11 06:23:52;;;;;;;14.60;9.88;;;;;;;;;;6193954;23;20168;-89
2021/06/11 06:26:56;;;;;;;17.85;9.88;;;;;;;;;;6177402;23;20171;-89
2021/06/11 06:30:02;;;;;;;28.50;10.30;;;;;;;;;;6176873;23;20254;-90
2021/06/11 06:33:06;;;;;;;17.17;9.40;;;;;;;;;;6176349;23;20176;-88
2021/06/11 06:36:10;;;;;;;13.05;8.60;;;;;;;;;;6176519;23;20227;-89
2021/06/11 06:39:15;;;;;;;16.05;9.02;;;;;;;;;;6175177;23;20233;-90
2021/06/11 06:42:20;;;;;;;15.70;8.38;;;;;;;;;;6174382;23;20164;-90
2021/06/11 06:45:25;;;;;;;15.40;8.40;;;;;;;;;;6192321;23;20651;-91
2021/06/11 06:48:31;;;;;;;18.52;9.10;;;;;;;;;;6175925;23;20167;-90
2021/06/11 06:51:35;;;;;;;10.90;7.90;;;;;;;;;;6175138;23;20199;-88
2021/06/11 06:54:41;;;;;;;15.38;7.85;;;;;;;;;;6174652;23;20611;-89
2021/06/11 06:57:46;;;;;;;13.18;8.18;;;;;;;;;;6174203;23;20176;-90
2021/06/11 07:00:52;;;;;;;12.75;8.10;;;;;;;;;;6175142;23;20171;-91
2021/06/11 07:03:57;;;;;;;13.75;8.68;;;;;;;;;;6176810;23;20167;-90
2021/06/11 07:07:02;;;;;;;15.23;9.25;;;;;;;;;;6175895;23;20195;-89
2021/06/11 07:10:07;;;;;;;14.38;8.77;;;;;;;;;;6174714;23;20568;-89
2021/06/11 07:13:13;;;;;;;12.05;8.27;;;;;;;;;;6180520;23;20231;-89
2021/06/11 07:16:20;;;;;;;13.55;9.25;;;;;;;;;;6187152;23;20646;-88
2021/06/11 07:19:25;;;;;;;14.82;8.63;;;;;;;;;;6202890;23;20191;-87
2021/06/11 07:22:30;;;;;;;14.77;9.52;;;;;;;;;;6183361;23;20168;-91
2021/06/11 07:25:35;;;;;;;18.30;8.48;;;;;;;;;;6177311;23;20195;-91
2021/06/11 07:28:39;;;;;;;12.23;7.45;;;;;;;;;;6192681;23;20179;-92
2021/06/11 07:31:46;;;;;;;14.50;8.02;;;;;;;;;;6191553;23;20258;-91
2021/06/11 07:34:51;;;;;;;14.05;8.38;;;;;;;;;;6193571;23;20172;-91
2021/06/11 07:37:55;;;;;;;16.25;8.00;;;;;;;;;;6194043;23;20175;-90
2021/06/11 07:40:59;;;;;;;12.40;8.73;;;;;;;;;;6193725;23;20183;-90
2021/06/11 07:44:04;;;;;;;15.88;10.77;;;;;;;;;;6196152;23;20535;-88
2021/06/11 07:47:11;;;;;;;11.32;7.88;;;;;;;;;;6196158;23;20176;-89
2021/06/11 07:50:16;;;;;;;13.90;7.82;;;;;;;;;;6195125;23;20195;-88
2021/06/11 07:53:23;;;;;;;11.30;7.28;;;;;;;;;;6196961;23;20485;-90
2021/06/11 07:56:27;;;;;;;11.07;7.10;;;;;;;;;;6195910;23;20172;-89
2021/06/11 07:59:32;;;;;;;13.43;7.22;;;;;;;;;;6195405;23;20626;-91
2021/06/11 08:02:40;;;;;;;10.77;6.85;;;;;;;;;;6196520;23;20176;-88
2021/06/11 08:05:45;;;;;;;14.45;8.45;;;;;;;;;;6199361;23;20156;-91
2021/06/11 08:08:55;;;;;;;11.55;7.10;;;;;;;;;;6199806;23;20186;-89
2021/06/11 08:11:59;;;;;;;10.88;6.85;;;;;;;;;;6195887;23;20303;-89
2021/06/11 08:15:04;;;;;;;10.25;7.13;;;;;;;;;;6196623;23;20168;-90
2021/06/11 08:18:10;;;;;;;11.57;7.90;;;;;;;;;;6195734;23;20512;-91
2021/06/11 08:21:15;;;;;;;10.68;6.93;;;;;;;;;;6200789;23;20184;-89
2021/06/11 08:24:20;;;;;;;10.88;6.75;;;;;;;;;;6194463;23;20180;-90
2021/06/11 08:27:24;;;;;;;10.00;6.30;;;;;;;;;;6194672;23;20195;-91
2021/06/11 08:30:29;;;;;;;8.93;6.65;;;;;;;;;;6196417;23;20195;-93
2021/06/11 08:33:35;;;;;;;8.20;5.85;;;;;;;;;;6195364;23;20272;-90
2021/06/11 08:36:40;;;;;;;10.25;6.35;;;;;;;;;;6193490;23;20172;-90
2021/06/11 08:39:47;;;;;;;8.18;5.75;;;;;;;;;;6194289;23;20497;-89
2021/06/11 08:42:51;;;;;;;8.80;5.47;;;;;;;;;;6194694;23;20179;-90
2021/06/11 08:45:57;;;;;;;7.88;5.28;;;;;;;;;;6194211;23;20280;-89
2021/06/11 08:49:03;;;;;;;10.73;5.45;;;;;;;;;;6193488;23;20164;-90
2021/06/11 08:52:08;;;;;;;9.23;5.80;;;;;;;;;;6193281;23;20508;-89
2021/06/11 08:55:13;;;;;;;9.82;5.90;;;;;;;;;;6193040;23;20646;-91
2021/06/11 08:58:18;;;;;;;8.32;5.85;;;;;;;;;;6193930;23;20172;-91
2021/06/11 09:01:23;;;;;;;11.52;6.00;;;;;;;;;;6193230;23;20490;-90
2021/06/11 09:04:43;;;;;;;7.70;5.47;;;;;;;;;;6193529;23;20172;-92
2021/06/11 09:07:50;;;;;;;13.60;6.07;;;;;;;;;;6195496;23;20288;-92
2021/06/11 09:11:10;;;;;;;9.77;6.07;;;;;;;;;;6193727;23;20183;-92
2021/06/11 09:14:16;;;;;;;8.18;5.50;;;;;;;;;;6193030;23;20499;-90
2021/06/11 09:17:32;;;;;;;8.70;5.93;;;;;;;;;;6193252;23;20215;-92
2021/06/11 09:20:41;;;;;;;8.13;5.43;;;;;;;;;;6192752;23;20171;-90
2021/06/11 09:24:08;;;;;;;11.77;5.82;;;;;;;;;;6191991;23;20229;-90
2021/06/11 09:27:16;;;;;;;8.93;5.45;;;;;;;;;;6191541;23;20212;-90
2021/06/11 09:30:21;;;;;;;8.80;6.30;;;;;;;;;;6194871;23;20270;-92
2021/06/11 09:33:25;;;;;;;11.60;6.57;;;;;;;;;;6196558;23;20250;-91
2021/06/11 09:36:32;;;;;;;7.70;5.70;;;;;;;;;;6195540;23;20187;-92
2021/06/11 09:39:43;;;;;;;9.18;5.70;;;;;;;;;;6196239;23;20170;-89
2021/06/11 09:42:49;;;;;;;7.22;5.10;;;;;;;;;;6197146;23;20215;-90
2021/06/11 09:46:01;;;;;;;6.38;5.00;;;;;;;;;;6198021;23;20299;-91
2021/06/11 09:49:16;;;;;;;7.43;5.18;;;;;;;;;;6196105;23;20222;-91
2021/06/11 09:52:22;;;;;;;5.75;4.32;;;;;;;;;;6195509;23;20179;-91
2021/06/11 09:55:28;;;;;;;7.85;4.93;;;;;;;;;;6196068;23;20175;-90
2021/06/11 09:58:36;;;;;;;6.72;5.80;;;;;;;;;;6198039;23;20183;-91
2021/06/11 10:01:41;;;;;;;7.20;5.47;;;;;;;;;;6198458;23;20167;-92
2021/06/11 10:04:46;;;;;;;6.63;5.28;;;;;;;;;;6199290;23;20187;-91
2021/06/11 10:07:53;;;;;;;10.82;5.38;;;;;;;;;;6183830;23;20179;-90
2021/06/11 10:10:59;;;;;;;7.45;4.68;;;;;;;;;;6196428;23;20219;-90
2021/06/11 10:14:07;;;;;;;7.28;4.50;;;;;;;;;;6196989;23;20179;-90
2021/06/11 10:17:11;;;;;;;5.90;4.82;;;;;;;;;;6203265;23;20198;-92
2021/06/11 10:20:16;;;;;;;4.63;3.85;;;;;;;;;;6199665;23;20191;-91
2021/06/11 10:23:24;;;;;;;4.85;4.25;;;;;;;;;;6192428;23;20615;-91
2021/06/11 10:26:29;;;;;;;4.18;3.78;;;;;;;;;;6194439;23;20187;-93
2021/06/11 10:29:34;;;;;;;10.20;4.22;;;;;;;;;;6195720;23;20630;-91
2021/06/11 10:32:40;;;;;;;6.45;3.72;;;;;;;;;;6194484;23;20171;-89
2021/06/11 10:35:47;;;;;;;5.25;3.47;;;;;;;;;;6198223;23;20175;-91
2021/06/11 10:38:53;;;;;;;6.70;4.70;;;;;;;;;;6194704;23;20638;-89
2021/06/11 10:42:03;;;;;;;8.10;3.97;;;;;;;;;;6192468;23;20181;-90
2021/06/11 10:45:07;;;;;;;5.15;4.30;;;;;;;;;;6194110;23;20217;-89
2021/06/11 10:48:12;;;;;;;4.63;4.05;;;;;;;;;;6194844;23;20218;-90
2021/06/11 10:51:32;;;;;;;9.32;4.10;;;;;;;;;;6194072;23;20191;-90
2021/06/11 10:54:39;;;;;;;7.45;4.80;;;;;;;;;;6193656;23;20171;-90
2021/06/11 10:57:44;;;;;;;6.85;3.78;;;;;;;;;;6193162;23;20171;-89
2021/06/11 11:00:48;;;;;;;4.90;3.72;;;;;;;;;;6192013;23;20164;-90
2021/06/11 11:03:54;;;;;;;7.65;3.72;;;;;;;;;;6194026;23;20180;-89
2021/06/11 11:06:58;;;;;;;8.23;4.32;;;;;;;;;;6195950;23;20188;-90
2021/06/11 11:10:05;;;;;;;6.28;4.00;;;;;;;;;;6192500;23;20175;-91
2021/06/11 11:13:11;;;;;;;6.47;4.03;;;;;;;;;;6191866;23;20204;-89
2021/06/11 11:16:22;;;;;;;6.35;3.80;;;;;;;;;;6192929;23;20176;-90
2021/06/11 11:19:41;;;;;;;5.65;3.65;;;;;;;;;;6193375;23;20171;-89
2021/06/11 11:22:46;;;;;;;8.07;3.80;;;;;;;;;;6192500;23;20297;-90
2021/06/11 11:25:52;;;;;;;4.32;3.20;;;;;;;;;;6193378;23;20219;-90
2021/06/11 11:28:57;;;;;;;5.88;3.30;;;;;;;;;;6192959;23;20175;-89
2021/06/11 11:32:01;;;;;;;4.30;3.08;;;;;;;;;;6192508;23;20196;-88
2021/06/11 11:35:06;;;;;;;4.78;3.42;;;;;;;;;;6192754;23;20187;-87
2021/06/11 11:38:11;;;;;;;5.57;3.60;;;;;;;;;;6197915;23;20517;-89
2021/06/11 11:41:19;;;;;;;5.15;3.30;;;;;;;;;;6191516;23;20168;-91
2021/06/11 11:44:25;;;;;;;6.35;3.28;;;;;;;;;;6192448;23;20172;-90
2021/06/11 11:47:30;;;;;;;5.05;3.42;;;;;;;;;;6195002;23;20187;-90
2021/06/11 11:50:36;;;;;;;5.40;3.92;;;;;;;;;;6194362;23;20195;-90
2021/06/11 11:53:40;;;;;;;5.20;3.80;;;;;;;;;;6193430;23;20203;-90
2021/06/11 11:56:47;;;;;;;9.43;4.25;;;;;;;;;;6192630;23;20174;-90
2021/06/11 11:59:51;;;;;;;4.63;3.53;;;;;;;;;;6192533;23;20295;-88
2021/06/11 12:02:56;;;;;;;4.40;3.60;;;;;;;;;;6193606;23;20180;-89
2021/06/11 12:06:01;;;;;;;6.75;3.55;;;;;;;;;;6193358;23;20199;-90
2021/06/11 12:09:05;;;;;;;6.43;3.72;;;;;;;;;;6193195;23;20627;-90
2021/06/11 12:12:12;;;;;;;10.02;3.92;;;;;;;;;;6192208;23;20281;-90
2021/06/11 12:15:18;;;;;;;3.85;3.03;;;;;;;;;;6194232;23;20195;-89
2021/06/11 12:18:23;;;;;;;7.15;3.30;;;;;;;;;;6195757;23;20175;-91
2021/06/11 12:21:28;;;;;;;6.63;3.00;;;;;;;;;;6195525;23;20168;-90
2021/06/11 12:24:32;;;;;;;6.97;3.00;;;;;;;;;;6199361;23;20163;-88
2021/06/11 12:27:39;;;;;;;6.68;4.47;;;;;;;;;;6163180;23;20166;-93
2021/06/11 12:30:45;;;;;;;4.85;3.22;;;;;;;;;;6197601;23;20217;-88
2021/06/11 12:33:49;;;;;;;4.80;3.17;;;;;;;;;;6193525;23;20171;-88
2021/06/11 12:36:54;;;;;;;5.82;3.40;;;;;;;;;;6175645;23;20622;-91
2021/06/11 12:40:00;;;;;;;5.63;3.13;;;;;;;;;;6194549;23;20198;-88
2021/06/11 12:43:07;;;;;;;5.70;3.00;;;;;;;;;;6193975;23;20214;-90
2021/06/11 12:46:13;;;;;;;3.67;2.90;;;;;;;;;;6176925;23;20167;-89
2021/06/11 12:49:19;;;;;;;4.90;2.97;;;;;;;;;;6175498;23;20170;-90
2021/06/11 12:52:24;;;;;;;5.05;2.78;;;;;;;;;;6194003;23;20665;-91
2021/06/11 12:55:28;;;;;;;3.53;3.17;;;;;;;;;;6176195;23;20170;-90
2021/06/11 12:58:34;;;;;;;7.35;2.97;;;;;;;;;;6177540;23;20703;-91
2021/06/11 13:01:39;;;;;;;3.78;2.80;;;;;;;;;;6193850;23;20175;-90
2021/06/11 13:04:44;;;;;;;4.72;3.30;;;;;;;;;;6176830;23;20504;-89
2021/06/11 13:07:49;;;;;;;7.45;3.00;;;;;;;;;;6195905;23;20167;-90
2021/06/11 13:10:53;;;;;;;6.13;3.10;;;;;;;;;;6194865;23;20269;-90
2021/06/11 13:13:59;;;;;;;4.15;2.45;;;;;;;;;;6174426;23;20620;-89
2021/06/11 13:17:04;;;;;;;3.53;2.88;;;;;;;;;;6174347;23;20214;-89
2021/06/11 13:20:09;;;;;;;4.70;3.35;;;;;;;;;;6190551;23;20560;-89
2021/06/11 13:23:14;;;;;;;4.40;2.53;;;;;;;;;;6189209;23;20210;-89
2021/06/11 13:26:18;;;;;;;4.45;2.65;;;;;;;;;;6189683;23;20198;-89
2021/06/11 13:29:24;;;;;;;3.92;2.72;;;;;;;;;;6172234;23;20194;-89
2021/06/11 13:32:29;;;;;;;3.50;2.88;;;;;;;;;;6173275;23;20190;-89
2021/06/11 13:35:33;;;;;;;3.67;2.97;;;;;;;;;;6174636;23;20241;-88
2021/06/11 13:38:37;;;;;;;4.10;2.63;;;;;;;;;;6174347;23;20163;-87
2021/06/11 13:41:44;;;;;;;4.28;2.60;;;;;;;;;;6174960;23;20164;-89
2021/06/11 13:44:50;;;;;;;4.10;3.35;;;;;;;;;;6175279;23;20171;-89
2021/06/11 13:47:56;;;;;;;4.05;3.20;;;;;;;;;;6155899;23;20195;-87
2021/06/11 13:51:00;;;;;;;3.92;2.90;;;;;;;;;;6173392;23;20191;-87
2021/06/11 13:54:05;;;;;;;8.25;3.28;;;;;;;;;;6173113;23;20171;-89
2021/06/11 13:57:11;;;;;;;6.13;3.65;;;;;;;;;;6189549;23;20176;-89
2021/06/11 14:00:19;;;;;;;4.50;3.05;;;;;;;;;;6173862;23;20179;-88
2021/06/11 14:03:24;;;;;;;4.85;3.10;;;;;;;;;;6194018;23;20223;-88
2021/06/11 14:06:28;;;;;;;4.97;3.30;;;;;;;;;;6176619;23;20509;-88
2021/06/11 14:09:33;;;;;;;5.47;3.75;;;;;;;;;;6176589;23;20176;-87
2021/06/11 14:12:37;;;;;;;6.63;3.63;;;;;;;;;;6175620;23;20195;-88
2021/06/11 14:15:43;;;;;;;11.07;3.88;;;;;;;;;;6174821;23;20172;-90
2021/06/11 14:18:48;;;;;;;8.52;4.03;;;;;;;;;;6196037;23;20267;-88
2021/06/11 14:21:53;;;;;;;7.32;3.97;;;;;;;;;;6177578;23;20176;-89
2021/06/11 14:25:03;;;;;;;6.85;3.80;;;;;;;;;;6196825;23;20223;-91
2021/06/11 14:28:07;;;;;;;6.97;3.60;;;;;;;;;;6176742;23;20308;-89
2021/06/11 14:31:13;;;;;;;9.80;3.80;;;;;;;;;;6196444;23;20215;-89
2021/06/11 14:34:18;;;;;;;7.00;3.88;;;;;;;;;;6178170;23;20505;-88
2021/06/11 14:37:22;;;;;;;7.15;3.65;;;;;;;;;;6178514;23;20229;-87
2021/06/11 14:40:27;;;;;;;8.02;3.80;;;;;;;;;;6177236;23;20171;-92
2021/06/11 14:43:31;;;;;;;11.23;4.05;;;;;;;;;;6193807;23;20167;-91
2021/06/11 14:46:37;;;;;;;9.20;3.88;;;;;;;;;;6175615;23;20160;-88
2021/06/11 14:49:42;;;;;;;13.95;3.92;;;;;;;;;;6175696;23;20172;-89
2021/06/11 14:52:49;;;;;;;10.02;4.38;;;;;;;;;;6180642;23;20160;-89
2021/06/11 14:56:00;;;;;;;10.30;4.53;;;;;;;;;;6185311;23;20233;-91
2021/06/11 14:59:05;;;;;;;12.02;5.10;;;;;;;;;;6185569;23;20172;-89
2021/06/11 15:02:22;;;;;;;9.60;5.50;;;;;;;;;;6183775;23;20168;-92
2021/06/11 15:05:27;;;;;;;13.55;5.18;;;;;;;;;;6182813;23;20156;-91
2021/06/11 15:08:32;;;;;;;12.80;5.15;;;;;;;;;;6198396;23;20176;-91
2021/06/11 15:11:36;;;;;;;9.95;5.07;;;;;;;;;;6176376;23;20255;-90
2021/06/11 15:14:41;;;;;;;8.55;4.93;;;;;;;;;;6194896;23;20172;-90
2021/06/11 15:17:46;;;;;;;16.25;6.18;;;;;;;;;;6179449;23;20192;-91
2021/06/11 15:20:53;;;;;;;8.50;4.63;;;;;;;;;;6180351;23;20167;-90
2021/06/11 15:23:58;;;;;;;9.98;5.40;;;;;;;;;;6176880;23;20171;-91
2021/06/11 15:27:03;;;;;;;13.75;6.68;;;;;;;;;;6182204;23;20168;-90
2021/06/11 15:30:08;;;;;;;12.23;6.13;;;;;;;;;;6180677;23;20172;-91
2021/06/11 15:33:16;;;;;;;8.00;5.20;;;;;;;;;;6196156;23;20163;-90
2021/06/11 15:36:21;;;;;;;9.95;5.80;;;;;;;;;;6179435;23;20172;-89
2021/06/11 15:39:26;;;;;;;11.48;6.07;;;;;;;;;;6177058;23;20217;-91
2021/06/11 15:42:31;;;;;;;9.65;6.15;;;;;;;;;;6177129;23;20167;-89
2021/06/11 15:45:36;;;;;;;9.15;6.00;;;;;;;;;;6177178;23;20176;-90
2021/06/11 15:48:41;;;;;;;17.58;7.03;;;;;;;;;;6195172;23;20667;-90
2021/06/11 15:51:46;;;;;;;11.45;5.30;;;;;;;;;;6176315;23;20215;-90
2021/06/11 15:54:51;;;;;;;16.77;9.13;;;;;;;;;;6196299;23;20172;-91
2021/06/11 15:57:55;;;;;;;8.10;5.70;;;;;;;;;;6177852;23;20172;-92
2021/06/11 16:01:00;;;;;;;8.68;4.50;;;;;;;;;;6194105;23;20164;-89
2021/06/11 16:04:06;;;;;;;7.30;5.30;;;;;;;;;;6179005;23;20235;-90
2021/06/11 16:07:11;;;;;;;8.38;5.07;;;;;;;;;;6194044;23;20642;-89
2021/06/11 16:10:16;;;;;;;8.85;4.50;;;;;;;;;;6193004;23;20207;-90
2021/06/11 16:13:20;;;;;;;7.80;4.40;;;;;;;;;;6178044;23;20171;-90
2021/06/11 16:16:26;;;;;;;5.95;3.92;;;;;;;;;;6194248;23;20163;-90
2021/06/11 16:19:32;;;;;;;8.15;4.72;;;;;;;;;;6177205;23;20498;-91
2021/06/11 16:22:36;;;;;;;9.77;4.82;;;;;;;;;;6192620;23;20167;-90
2021/06/11 16:25:40;;;;;;;8.07;3.75;;;;;;;;;;6176295;23;20679;-89
2021/06/11 16:28:45;;;;;;;11.38;5.18;;;;;;;;;;6193334;23;20164;-89
2021/06/11 16:31:50;;;;;;;8.98;4.63;;;;;;;;;;6192164;23;20191;-89
2021/06/11 16:34:56;;;;;;;7.25;4.68;;;;;;;;;;6196765;23;20229;-90
2021/06/11 16:38:01;;;;;;;6.90;4.88;;;;;;;;;;6199288;23;20168;-90
2021/06/11 16:41:07;;;;;;;9.18;5.28;;;;;;;;;;6194482;23;20258;-89
2021/06/11 16:44:12;;;;;;;8.68;5.07;;;;;;;;;;6194428;23;20199;-91
2021/06/11 16:47:17;;;;;;;9.27;5.22;;;;;;;;;;6194307;23;20195;-92
2021/06/11 16:50:22;;;;;;;6.57;5.38;;;;;;;;;;6195532;23;20191;-92
2021/06/11 16:53:27;;;;;;;7.82;5.28;;;;;;;;;;6194428;23;20197;-91
2021/06/11 16:56:32;;;;;;;13.05;4.95;;;;;;;;;;6195404;23;20219;-91
2021/06/11 16:59:37;;;;;;;8.63;5.05;;;;;;;;;;6194884;23;20172;-91
2021/06/11 17:02:43;;;;;;;8.52;4.65;;;;;;;;;;6197007;23;20171;-90
2021/06/11 17:05:49;;;;;;;12.98;5.05;;;;;;;;;;6193175;23;20172;-91
2021/06/11 17:08:53;;;;;;;9.82;5.18;;;;;;;;;;6193573;23;20228;-91
2021/06/11 17:11:58;;;;;;;14.13;5.43;;;;;;;;;;6193260;23;20195;-90
2021/06/11 17:15:04;;;;;;;5.53;3.97;;;;;;;;;;6192927;23;20172;-90
2021/06/11 17:18:08;;;;;;;7.25;4.60;;;;;;;;;;6191883;23;20205;-90
2021/06/11 17:21:14;;;;;;;8.25;4.65;;;;;;;;;;6191717;23;20167;-90
2021/06/11 17:24:20;;;;;;;10.13;5.03;;;;;;;;;;6194991;23;20210;-90
2021/06/11 17:27:24;;;;;;;7.38;4.43;;;;;;;;;;6191976;23;20175;-90
2021/06/11 17:30:30;;;;;;;12.35;4.47;;;;;;;;;;6174617;23;20171;-89
2021/06/11 17:33:36;;;;;;;7.22;4.93;;;;;;;;;;6190878;23;20683;-88
2021/06/11 17:36:42;;;;;;;8.70;4.78;;;;;;;;;;6195057;23;20618;-90
2021/06/11 17:39:46;;;;;;;12.00;4.70;;;;;;;;;;6192622;23;20172;-89
2021/06/11 17:42:53;;;;;;;12.30;5.70;;;;;;;;;;6193657;23;20169;-90
2021/06/11 17:46:06;;;;;;;9.80;5.57;;;;;;;;;;6192948;23;20269;-89
2021/06/11 17:49:11;;;;;;;9.15;4.70;;;;;;;;;;6192460;23;20164;-90
2021/06/11 17:52:18;;;;;;;8.05;4.97;;;;;;;;;;6194235;23;20566;-89
2021/06/11 17:55:32;;;;;;;6.95;4.18;;;;;;;;;;6192722;23;20211;-90
2021/06/11 17:58:37;;;;;;;12.88;5.13;;;;;;;;;;6192801;23;20583;-89
2021/06/11 18:02:07;;;;;;;9.35;5.47;;;;;;;;;;6192828;23;20335;-91
2021/06/11 18:05:13;;;;;;;9.05;5.25;;;;;;;;;;6193557;23;20259;-90
2021/06/11 18:08:24;;;;;;;14.00;5.97;;;;;;;;;;6192282;23;20191;-88
2021/06/11 18:11:28;;;;;;;9.90;5.63;;;;;;;;;;6195611;23;20191;-89
2021/06/11 18:14:33;;;;;;;15.57;7.57;;;;;;;;;;6193459;23;20591;-89
2021/06/11 18:17:40;;;;;;;13.02;6.50;;;;;;;;;;6193252;23;20227;-90
2021/06/11 18:20:45;;;;;;;7.40;5.03;;;;;;;;;;6192856;23;20175;-91
2021/06/11 18:23:51;;;;;;;11.05;5.78;;;;;;;;;;6192777;23;20219;-90